sensor_id;sensor_type;location;lat;lon;timestamp;pressure;altitude;pressure_sealevel;temperature;humidity
61573;BME280;47465;43.094;12.434;2023-02-04T00:02:09;99495.00;;;5.37;100.00
61573;BME280;47465;43.094;12.434;2023-02-04T00:04:34;99518.81;;;5.47;100.00
61573;BME280;47465;43.094;12.434;2023-02-04T00:07:00;99505.50;;;5.29;100.00
61573;BME280;47465;43.094;12.434;2023-02-04T00:09:26;99521.41;;;5.41;100.00
61573;BME280;47465;43.094;12.434;2023-02-04T00:11:53;99517.91;;;5.48;100.00
61573;BME280;47465;43.094;12.434;2023-02-04T00:14:19;99505.63;;;5.47;100.00
61573;BME280;47465;43.094;12.434;2023-02-04T00:16:45;99488.84;;;5.38;100.00
61573;BME280;47465;43.094;12.434;2023-02-04T00:19:11;99483.56;;;5.34;100.00
61573;BME280;47465;43.094;12.434;2023-02-04T00:21:37;99495.00;;;5.37;100.00
61573;BME280;47465;43.094;12.434;2023-02-04T00:24:03;99499.41;;;5.36;100.00
61573;BME280;47465;43.094;12.434;2023-02-04T00:26:29;99506.41;;;5.34;100.00
61573;BME280;47465;43.094;12.434;2023-02-04T00:28:56;99489.66;;;5.24;100.00
61573;BME280;47465;43.094;12.434;2023-02-04T00:31:22;99470.28;;;5.19;100.00
61573;BME280;47465;43.094;12.434;2023-02-04T00:33:47;99473.81;;;5.20;100.00
61573;BME280;47465;43.094;12.434;2023-02-04T00:36:13;99480.00;;;5.25;100.00
61573;BME280;47465;43.094;12.434;2023-02-04T00:38:39;99481.78;;;5.27;100.00
61573;BME280;47465;43.094;12.434;2023-02-04T00:41:05;99455.34;;;5.18;100.00
61573;BME280;47465;43.094;12.434;2023-02-04T00:43:31;99454.47;;;5.19;100.00
61573;BME280;47465;43.094;12.434;2023-02-04T00:45:59;99482.66;;;5.35;100.00
61573;BME280;47465;43.094;12.434;2023-02-04T00:48:25;99464.19;;;5.28;100.00
61573;BME280;47465;43.094;12.434;2023-02-04T00:50:51;99469.47;;;5.31;100.00
61573;BME280;47465;43.094;12.434;2023-02-04T00:53:18;99460.66;;;5.24;100.00
61573;BME280;47465;43.094;12.434;2023-02-04T00:55:44;99484.47;;;5.44;100.00
61573;BME280;47465;43.094;12.434;2023-02-04T00:58:10;99455.47;;;5.41;100.00
61573;BME280;47465;43.094;12.434;2023-02-04T01:00:36;99468.66;;;5.46;100.00
61573;BME280;47465;43.094;12.434;2023-02-04T01:03:04;99462.53;;;5.48;100.00
61573;BME280;47465;43.094;12.434;2023-02-04T01:05:30;99451.13;;;5.54;100.00
61573;BME280;47465;43.094;12.434;2023-02-04T01:07:56;99416.78;;;5.40;100.00
61573;BME280;47465;43.094;12.434;2023-02-04T01:10:22;99427.34;;;5.43;100.00
61573;BME280;47465;43.094;12.434;2023-02-04T01:12:48;99436.13;;;5.41;100.00
61573;BME280;47465;43.094;12.434;2023-02-04T01:15:14;99442.25;;;5.37;100.00
61573;BME280;47465;43.094;12.434;2023-02-04T01:17:40;99459.88;;;5.45;100.00
61573;BME280;47465;43.094;12.434;2023-02-04T01:20:09;99444.00;;;5.33;100.00
61573;BME280;47465;43.094;12.434;2023-02-04T01:22:36;99436.94;;;5.27;100.00
61573;BME280;47465;43.094;12.434;2023-02-04T01:25:02;99446.59;;;5.27;100.00
61573;BME280;47465;43.094;12.434;2023-02-04T01:27:28;99437.75;;;5.15;100.00
61573;BME280;47465;43.094;12.434;2023-02-04T01:29:54;99438.56;;;5.07;100.00
61573;BME280;47465;43.094;12.434;2023-02-04T01:32:20;99413.03;;;4.95;100.00
61573;BME280;47465;43.094;12.434;2023-02-04T01:34:45;99413.88;;;4.89;100.00
61573;BME280;47465;43.094;12.434;2023-02-04T01:37:13;99420.13;;;5.04;100.00
61573;BME280;47465;43.094;12.434;2023-02-04T01:39:38;99408.66;;;4.97;100.00
61573;BME280;47465;43.094;12.434;2023-02-04T01:42:05;99419.22;;;5.05;100.00
61573;BME280;47465;43.094;12.434;2023-02-04T01:44:31;99414.84;;;5.02;100.00
61573;BME280;47465;43.094;12.434;2023-02-04T01:46:56;99427.06;;;4.94;100.00
61573;BME280;47465;43.094;12.434;2023-02-04T01:49:23;99386.56;;;4.73;100.00
61573;BME280;47465;43.094;12.434;2023-02-04T01:51:49;99401.47;;;4.74;100.00
61573;BME280;47465;43.094;12.434;2023-02-04T01:54:16;99402.41;;;4.80;100.00
61573;BME280;47465;43.094;12.434;2023-02-04T01:56:44;99411.13;;;4.69;100.00
61573;BME280;47465;43.094;12.434;2023-02-04T01:59:12;99417.28;;;4.74;100.00
61573;BME280;47465;43.094;12.434;2023-02-04T02:01:40;99406.75;;;4.74;100.00
61573;BME280;47465;43.094;12.434;2023-02-04T02:04:06;99426.16;;;4.84;100.00
61573;BME280;47465;43.094;12.434;2023-02-04T02:06:33;99434.97;;;4.91;100.00
61573;BME280;47465;43.094;12.434;2023-02-04T02:09:00;99415.66;;;4.90;100.00
61573;BME280;47465;43.094;12.434;2023-02-04T02:11:28;99413.13;;;5.10;100.00
61573;BME280;47465;43.094;12.434;2023-02-04T02:13:55;99428.06;;;5.11;100.00
61573;BME280;47465;43.094;12.434;2023-02-04T02:16:21;99424.56;;;5.12;100.00
61573;BME280;47465;43.094;12.434;2023-02-04T02:18:47;99392.00;;;5.01;100.00
61573;BME280;47465;43.094;12.434;2023-02-04T02:21:15;99416.66;;;5.15;100.00
61573;BME280;47465;43.094;12.434;2023-02-04T02:23:47;99418.44;;;5.24;100.00
61573;BME280;47465;43.094;12.434;2023-02-04T02:26:15;99384.97;;;5.09;100.00
61573;BME280;47465;43.094;12.434;2023-02-04T02:28:42;99391.19;;;5.14;100.00
61573;BME280;47465;43.094;12.434;2023-02-04T02:31:08;99379.72;;;5.09;100.00
61573;BME280;47465;43.094;12.434;2023-02-04T02:33:34;99406.13;;;5.14;100.00
61573;BME280;47465;43.094;12.434;2023-02-04T02:36:01;99381.44;;;5.03;100.00
61573;BME280;47465;43.094;12.434;2023-02-04T02:38:27;99381.44;;;5.04;100.00
61573;BME280;47465;43.094;12.434;2023-02-04T02:40:55;99370.91;;;5.00;100.00
61573;BME280;47465;43.094;12.434;2023-02-04T02:43:22;99376.16;;;5.03;100.00
61573;BME280;47465;43.094;12.434;2023-02-04T02:45:49;99382.31;;;4.97;100.00
61573;BME280;47465;43.094;12.434;2023-02-04T02:48:16;99354.97;;;4.83;100.00
61573;BME280;47465;43.094;12.434;2023-02-04T02:50:42;99375.28;;;4.98;100.00
61573;BME280;47465;43.094;12.434;2023-02-04T02:53:09;99375.28;;;5.02;100.00
61573;BME280;47465;43.094;12.434;2023-02-04T02:55:36;99367.38;;;5.01;100.00
61573;BME280;47465;43.094;12.434;2023-02-04T02:58:04;99352.44;;;4.95;100.00
61573;BME280;47465;43.094;12.434;2023-02-04T03:00:36;99355.97;;;5.02;100.00
61573;BME280;47465;43.094;12.434;2023-02-04T03:03:05;99365.66;;;5.10;100.00
61573;BME280;47465;43.094;12.434;2023-02-04T03:05:36;99344.53;;;4.98;100.00
61573;BME280;47465;43.094;12.434;2023-02-04T03:08:04;99340.97;;;4.90;100.00
61573;BME280;47465;43.094;12.434;2023-02-04T03:10:30;99351.56;;;4.94;100.00
61573;BME280;47465;43.094;12.434;2023-02-04T03:12:56;99333.91;;;4.80;100.00
61573;BME280;47465;43.094;12.434;2023-02-04T03:15:25;99346.22;;;4.82;100.00
61573;BME280;47465;43.094;12.434;2023-02-04T03:17:51;99348.00;;;4.91;100.00
61573;BME280;47465;43.094;12.434;2023-02-04T03:20:22;99327.78;;;4.84;100.00
61573;BME280;47465;43.094;12.434;2023-02-04T03:22:49;99325.94;;;4.72;100.00
61573;BME280;47465;43.094;12.434;2023-02-04T03:25:15;99328.63;;;4.75;100.00
61573;BME280;47465;43.094;12.434;2023-02-04T03:27:41;99316.28;;;4.69;100.00
61573;BME280;47465;43.094;12.434;2023-02-04T03:30:07;99330.34;;;4.74;100.00
61573;BME280;47465;43.094;12.434;2023-02-04T03:32:35;99324.19;;;4.69;100.00
61573;BME280;47465;43.094;12.434;2023-02-04T03:35:00;99300.41;;;4.59;100.00
61573;BME280;47465;43.094;12.434;2023-02-04T03:37:26;99322.44;;;4.76;100.00
61573;BME280;47465;43.094;12.434;2023-02-04T03:39:52;99317.16;;;4.74;100.00
61573;BME280;47465;43.094;12.434;2023-02-04T03:42:18;99296.06;;;4.62;100.00
61573;BME280;47465;43.094;12.434;2023-02-04T03:44:44;99304.00;;;4.74;100.00
61573;BME280;47465;43.094;12.434;2023-02-04T03:47:10;99285.53;;;4.67;100.00
61573;BME280;47465;43.094;12.434;2023-02-04T03:49:37;99304.91;;;4.80;100.00
61573;BME280;47465;43.094;12.434;2023-02-04T03:52:03;99309.31;;;4.81;100.00
61573;BME280;47465;43.094;12.434;2023-02-04T03:54:30;99316.34;;;4.82;100.00
61573;BME280;47465;43.094;12.434;2023-02-04T03:56:55;99314.59;;;4.84;100.00
61573;BME280;47465;43.094;12.434;2023-02-04T03:59:21;99314.59;;;4.85;100.00
61573;BME280;47465;43.094;12.434;2023-02-04T04:01:47;99300.50;;;4.79;100.00
61573;BME280;47465;43.094;12.434;2023-02-04T04:04:13;99288.22;;;4.76;100.00
61573;BME280;47465;43.094;12.434;2023-02-04T04:06:40;99284.69;;;4.79;100.00
61573;BME280;47465;43.094;12.434;2023-02-04T04:09:06;99309.38;;;4.93;100.00
61573;BME280;47465;43.094;12.434;2023-02-04T04:11:32;99294.41;;;4.92;100.00
61573;BME280;47465;43.094;12.434;2023-02-04T04:13:58;99290.91;;;4.88;100.00
61573;BME280;47465;43.094;12.434;2023-02-04T04:16:23;99295.28;;;4.88;100.00
61573;BME280;47465;43.094;12.434;2023-02-04T04:18:49;99270.69;;;4.86;100.00
61573;BME280;47465;43.094;12.434;2023-02-04T04:21:15;99295.31;;;4.99;100.00
61573;BME280;47465;43.094;12.434;2023-02-04T04:23:42;99263.69;;;4.91;100.00
61573;BME280;47465;43.094;12.434;2023-02-04T04:26:08;99268.97;;;4.97;100.00
61573;BME280;47465;43.094;12.434;2023-02-04T04:28:34;99272.47;;;4.98;100.00
61573;BME280;47465;43.094;12.434;2023-02-04T04:31:00;99259.25;;;4.90;100.00
61573;BME280;47465;43.094;12.434;2023-02-04T04:33:25;99276.03;;;5.01;100.00
61573;BME280;47465;43.094;12.434;2023-02-04T04:35:51;99268.13;;;5.06;100.00
61573;BME280;47465;43.094;12.434;2023-02-04T04:38:17;99268.97;;;5.00;100.00
61573;BME280;47465;43.094;12.434;2023-02-04T04:40:44;99246.09;;;4.88;100.00
61573;BME280;47465;43.094;12.434;2023-02-04T04:43:11;99268.09;;;5.00;100.00
61573;BME280;47465;43.094;12.434;2023-02-04T04:45:36;99265.47;;;4.97;100.00
61573;BME280;47465;43.094;12.434;2023-02-04T04:48:03;99255.78;;;4.96;100.00
61573;BME280;47465;43.094;12.434;2023-02-04T04:50:29;99260.19;;;4.98;100.00
61573;BME280;47465;43.094;12.434;2023-02-04T04:52:55;99253.13;;;4.89;100.00
61573;BME280;47465;43.094;12.434;2023-02-04T04:55:20;99257.53;;;4.95;100.00
61573;BME280;47465;43.094;12.434;2023-02-04T04:57:48;99250.50;;;4.99;100.00
61573;BME280;47465;43.094;12.434;2023-02-04T05:00:16;99248.75;;;4.98;100.00
61573;BME280;47465;43.094;12.434;2023-02-04T05:02:42;99251.41;;;5.02;100.00
61573;BME280;47465;43.094;12.434;2023-02-04T05:05:08;99254.91;;;5.03;100.00
61573;BME280;47465;43.094;12.434;2023-02-04T05:07:34;99258.44;;;5.06;100.00
61573;BME280;47465;43.094;12.434;2023-02-04T05:10:00;99261.09;;;5.11;100.00
61573;BME280;47465;43.094;12.434;2023-02-04T05:12:25;99258.50;;;5.19;100.00
61573;BME280;47465;43.094;12.434;2023-02-04T05:14:53;99260.25;;;5.20;100.00
61573;BME280;47465;43.094;12.434;2023-02-04T05:17:18;99265.53;;;5.17;100.00
61573;BME280;47465;43.094;12.434;2023-02-04T05:19:44;99254.09;;;5.19;100.00
61573;BME280;47465;43.094;12.434;2023-02-04T05:22:10;99243.53;;;5.16;100.00
61573;BME280;47465;43.094;12.434;2023-02-04T05:24:36;99262.00;;;5.27;100.00
61573;BME280;47465;43.094;12.434;2023-02-04T05:27:02;99261.16;;;5.29;100.00
61573;BME280;47465;43.094;12.434;2023-02-04T05:29:28;99250.59;;;5.31;100.00
61573;BME280;47465;43.094;12.434;2023-02-04T05:31:55;99247.97;;;5.25;100.00
61573;BME280;47465;43.094;12.434;2023-02-04T05:34:21;99233.03;;;5.25;100.00
61573;BME280;47465;43.094;12.434;2023-02-04T05:36:47;99256.69;;;5.16;100.00
61573;BME280;47465;43.094;12.434;2023-02-04T05:39:13;99246.16;;;5.16;100.00
61573;BME280;47465;43.094;12.434;2023-02-04T05:41:38;99245.31;;;5.23;100.00
61573;BME280;47465;43.094;12.434;2023-02-04T05:44:04;99242.66;;;5.22;100.00
61573;BME280;47465;43.094;12.434;2023-02-04T05:46:30;99252.34;;;5.21;100.00
61573;BME280;47465;43.094;12.434;2023-02-04T05:48:57;99238.25;;;5.10;100.00
61573;BME280;47465;43.094;12.434;2023-02-04T05:51:23;99238.25;;;5.18;100.00
61573;BME280;47465;43.094;12.434;2023-02-04T05:53:49;99251.47;;;5.25;100.00
61573;BME280;47465;43.094;12.434;2023-02-04T05:56:15;99259.38;;;5.38;100.00
61573;BME280;47465;43.094;12.434;2023-02-04T05:58:41;99265.53;;;5.29;100.00
61573;BME280;47465;43.094;12.434;2023-02-04T06:01:06;99269.94;;;5.30;100.00
61573;BME280;47465;43.094;12.434;2023-02-04T06:03:32;99253.25;;;5.28;100.00
61573;BME280;47465;43.094;12.434;2023-02-04T06:06:00;99260.28;;;5.40;100.00
61573;BME280;47465;43.094;12.434;2023-02-04T06:08:25;99252.34;;;5.30;100.00
61573;BME280;47465;43.094;12.434;2023-02-04T06:10:51;99253.25;;;5.37;100.00
61573;BME280;47465;43.094;12.434;2023-02-04T06:13:17;99227.75;;;5.21;100.00
61573;BME280;47465;43.094;12.434;2023-02-04T06:15:43;99245.31;;;5.28;100.00
61573;BME280;47465;43.094;12.434;2023-02-04T06:18:09;99244.44;;;5.23;100.00
61573;BME280;47465;43.094;12.434;2023-02-04T06:20:35;99245.31;;;5.22;100.00
61573;BME280;47465;43.094;12.434;2023-02-04T06:23:02;99246.19;;;5.33;100.00
61573;BME280;47465;43.094;12.434;2023-02-04T06:25:28;99249.72;;;5.30;100.00
61573;BME280;47465;43.094;12.434;2023-02-04T06:27:54;99273.47;;;5.37;100.00
61573;BME280;47465;43.094;12.434;2023-02-04T06:30:20;99234.78;;;5.23;100.00
61573;BME280;47465;43.094;12.434;2023-02-04T06:32:46;99252.38;;;5.32;100.00
61573;BME280;47465;43.094;12.434;2023-02-04T06:35:12;99266.44;;;5.34;100.00
61573;BME280;47465;43.094;12.434;2023-02-04T06:37:39;99247.06;;;5.21;100.00
61573;BME280;47465;43.094;12.434;2023-02-04T06:40:08;99247.94;;;5.19;100.00
61573;BME280;47465;43.094;12.434;2023-02-04T06:42:34;99283.13;;;5.34;100.00
61573;BME280;47465;43.094;12.434;2023-02-04T06:45:01;99257.59;;;5.20;100.00
61573;BME280;47465;43.094;12.434;2023-02-04T06:47:27;99265.56;;;5.32;100.00
61573;BME280;47465;43.094;12.434;2023-02-04T06:49:53;99247.97;;;5.29;100.00
61573;BME280;47465;43.094;12.434;2023-02-04T06:52:19;99246.22;;;5.34;100.00
61573;BME280;47465;43.094;12.434;2023-02-04T06:54:45;99252.38;;;5.37;100.00
61573;BME280;47465;43.094;12.434;2023-02-04T06:57:12;99255.00;;;5.44;100.00
61573;BME280;47465;43.094;12.434;2023-02-04T06:59:39;99250.63;;;5.40;100.00
61573;BME280;47465;43.094;12.434;2023-02-04T07:02:07;99274.38;;;5.52;100.00
61573;BME280;47465;43.094;12.434;2023-02-04T07:04:33;99273.47;;;5.44;100.00
61573;BME280;47465;43.094;12.434;2023-02-04T07:06:59;99261.19;;;5.45;100.00
61573;BME280;47465;43.094;12.434;2023-02-04T07:09:25;99258.53;;;5.42;100.00
61573;BME280;47465;43.094;12.434;2023-02-04T07:11:51;99269.09;;;5.54;100.00
61573;BME280;47465;43.094;12.434;2023-02-04T07:14:20;99272.63;;;5.61;100.00
61573;BME280;47465;43.094;12.434;2023-02-04T07:16:45;99244.47;;;5.50;100.00
61573;BME280;47465;43.094;12.434;2023-02-04T07:19:11;99275.25;;;5.65;100.00
61573;BME280;47465;43.094;12.434;2023-02-04T07:21:37;99278.78;;;5.66;100.00
61573;BME280;47465;43.094;12.434;2023-02-04T07:24:03;99267.34;;;5.70;100.00
61573;BME280;47465;43.094;12.434;2023-02-04T07:26:29;99259.44;;;5.73;100.00
61573;BME280;47465;43.094;12.434;2023-02-04T07:28:55;99241.84;;;5.78;100.00
61573;BME280;47465;43.094;12.434;2023-02-04T07:31:23;99247.16;;;5.95;100.00
61573;BME280;47465;43.094;12.434;2023-02-04T07:33:48;99236.59;;;5.96;100.00
61573;BME280;47465;43.094;12.434;2023-02-04T07:36:14;99266.47;;;6.23;100.00
61573;BME280;47465;43.094;12.434;2023-02-04T07:38:40;99259.41;;;6.33;100.00
61573;BME280;47465;43.094;12.434;2023-02-04T07:41:06;99237.41;;;6.31;100.00
61573;BME280;47465;43.094;12.434;2023-02-04T07:43:32;99247.97;;;6.35;100.00
61573;BME280;47465;43.094;12.434;2023-02-04T07:45:58;99271.66;;;6.57;100.00
61573;BME280;47465;43.094;12.434;2023-02-04T07:48:25;99269.88;;;6.74;100.00
61573;BME280;47465;43.094;12.434;2023-02-04T07:50:51;99250.47;;;6.75;100.00
61573;BME280;47465;43.094;12.434;2023-02-04T07:53:17;99251.38;;;6.71;100.00
61573;BME280;47465;43.094;12.434;2023-02-04T07:55:43;99257.50;;;6.79;100.00
61573;BME280;47465;43.094;12.434;2023-02-04T07:58:09;99253.94;;;6.88;100.00
61573;BME280;47465;43.094;12.434;2023-02-04T08:00:34;99255.69;;;6.98;100.00
61573;BME280;47465;43.094;12.434;2023-02-04T08:03:00;99274.09;;;7.18;100.00
61573;BME280;47465;43.094;12.434;2023-02-04T08:05:28;99259.94;;;7.29;100.00
61573;BME280;47465;43.094;12.434;2023-02-04T08:07:57;99257.22;;;7.36;100.00
61573;BME280;47465;43.094;12.434;2023-02-04T08:10:23;99273.88;;;7.52;100.00
61573;BME280;47465;43.094;12.434;2023-02-04T08:12:49;99267.69;;;7.52;100.00
61573;BME280;47465;43.094;12.434;2023-02-04T08:15:18;99294.88;;;7.75;100.00
61573;BME280;47465;43.094;12.434;2023-02-04T08:17:53;99267.53;;;7.72;100.00
61573;BME280;47465;43.094;12.434;2023-02-04T08:20:19;99257.84;;;7.72;100.00
61573;BME280;47465;43.094;12.434;2023-02-04T08:22:46;99262.22;;;7.78;100.00
61573;BME280;47465;43.094;12.434;2023-02-04T08:25:12;99282.38;;;7.96;100.00
61573;BME280;47465;43.094;12.434;2023-02-04T08:27:38;99263.66;;;8.16;100.00
61573;BME280;47465;43.094;12.434;2023-02-04T08:30:05;99266.19;;;8.28;100.00
61573;BME280;47465;43.094;12.434;2023-02-04T08:32:31;99254.66;;;8.34;100.00
61573;BME280;47465;43.094;12.434;2023-02-04T08:34:57;99234.38;;;8.30;100.00
61573;BME280;47465;43.094;12.434;2023-02-04T08:37:23;99251.06;;;8.39;100.00
61573;BME280;47465;43.094;12.434;2023-02-04T08:39:51;99257.13;;;8.54;100.00
61573;BME280;47465;43.094;12.434;2023-02-04T08:42:17;99263.25;;;8.59;100.00
61573;BME280;47465;43.094;12.434;2023-02-04T08:44:43;99254.41;;;8.60;100.00
61573;BME280;47465;43.094;12.434;2023-02-04T08:47:09;99253.34;;;8.76;100.00
61573;BME280;47465;43.094;12.434;2023-02-04T08:49:35;99240.94;;;8.78;100.00
61573;BME280;47465;43.094;12.434;2023-02-04T08:52:01;99240.84;;;8.84;99.75
61573;BME280;47465;43.094;12.434;2023-02-04T08:54:28;99232.00;;;8.87;99.82
61573;BME280;47465;43.094;12.434;2023-02-04T08:56:56;99249.31;;;9.14;98.73
61573;BME280;47465;43.094;12.434;2023-02-04T08:59:22;99240.34;;;9.23;98.46
61573;BME280;47465;43.094;12.434;2023-02-04T09:01:48;99219.97;;;9.23;96.84
61573;BME280;47465;43.094;12.434;2023-02-04T09:04:17;99224.34;;;9.29;95.56
61573;BME280;47465;43.094;12.434;2023-02-04T09:06:43;99246.09;;;9.53;96.05
61573;BME280;47465;43.094;12.434;2023-02-04T09:09:09;99232.06;;;9.43;95.08
61573;BME280;47465;43.094;12.434;2023-02-04T09:11:35;99210.84;;;9.43;95.65
61573;BME280;47465;43.094;12.434;2023-02-04T09:14:02;99219.50;;;9.56;94.91
61573;BME280;47465;43.094;12.434;2023-02-04T09:16:29;99235.00;;;9.82;93.94
61573;BME280;47465;43.094;12.434;2023-02-04T09:18:54;99216.50;;;9.77;92.47
61573;BME280;47465;43.094;12.434;2023-02-04T09:21:20;99227.59;;;10.02;92.98
61573;BME280;47465;43.094;12.434;2023-02-04T09:23:46;99231.00;;;10.11;92.46
61573;BME280;47465;43.094;12.434;2023-02-04T09:26:13;99237.13;;;10.13;90.66
61573;BME280;47465;43.094;12.434;2023-02-04T09:28:39;99222.03;;;10.15;91.48
61573;BME280;47465;43.094;12.434;2023-02-04T09:31:06;99222.22;;;10.05;92.24
61573;BME280;47465;43.094;12.434;2023-02-04T09:33:32;99224.47;;;10.28;91.61
61573;BME280;47465;43.094;12.434;2023-02-04T09:35:58;99246.97;;;10.59;89.67
61573;BME280;47465;43.094;12.434;2023-02-04T09:38:26;99225.44;;;10.71;88.14
61573;BME280;47465;43.094;12.434;2023-02-04T09:41:02;99209.41;;;10.74;88.10
61573;BME280;47465;43.094;12.434;2023-02-04T09:43:29;99234.28;;;11.15;87.27
61573;BME280;47465;43.094;12.434;2023-02-04T09:45:56;99208.69;;;11.08;86.02
61573;BME280;47465;43.094;12.434;2023-02-04T09:48:24;99208.16;;;11.33;84.73
61573;BME280;47465;43.094;12.434;2023-02-04T09:50:51;99207.91;;;11.43;84.64
61573;BME280;47465;43.094;12.434;2023-02-04T09:53:19;99215.03;;;11.43;85.28
61573;BME280;47465;43.094;12.434;2023-02-04T09:55:48;99213.47;;;11.70;83.82
61573;BME280;47465;43.094;12.434;2023-02-04T09:58:16;99215.88;;;11.81;82.11
61573;BME280;47465;43.094;12.434;2023-02-04T10:00:43;99227.16;;;11.92;82.04
61573;BME280;47465;43.094;12.434;2023-02-04T10:03:13;99213.78;;;11.95;81.94
61573;BME280;47465;43.094;12.434;2023-02-04T10:05:42;99206.94;;;11.46;83.68
61573;BME280;47465;43.094;12.434;2023-02-04T10:08:11;99213.50;;;11.68;82.15
61573;BME280;47465;43.094;12.434;2023-02-04T10:10:39;99208.16;;;11.68;81.11
61573;BME280;47465;43.094;12.434;2023-02-04T10:13:05;99180.75;;;11.65;80.14
61573;BME280;47465;43.094;12.434;2023-02-04T10:15:33;99198.47;;;11.66;79.92
61573;BME280;47465;43.094;12.434;2023-02-04T10:18:01;99189.50;;;11.70;78.93
61573;BME280;47465;43.094;12.434;2023-02-04T10:20:28;99180.50;;;11.74;78.65
61573;BME280;47465;43.094;12.434;2023-02-04T10:22:55;99188.19;;;11.88;77.50
61573;BME280;47465;43.094;12.434;2023-02-04T10:25:26;99202.44;;;11.84;78.72
61573;BME280;47465;43.094;12.434;2023-02-04T10:27:54;99198.28;;;11.74;80.64
61573;BME280;47465;43.094;12.434;2023-02-04T10:30:22;99194.31;;;11.91;77.74
61573;BME280;47465;43.094;12.434;2023-02-04T10:32:48;99171.03;;;11.98;75.38
61573;BME280;47465;43.094;12.434;2023-02-04T10:35:16;99163.03;;;11.98;73.65
61573;BME280;47465;43.094;12.434;2023-02-04T10:37:42;99184.94;;;12.09;75.76
61573;BME280;47465;43.094;12.434;2023-02-04T10:40:27;99175.25;;;12.07;75.49
61573;BME280;47465;43.094;12.434;2023-02-04T10:42:56;99152.78;;;11.81;75.90
61573;BME280;47465;43.094;12.434;2023-02-04T10:45:24;99150.25;;;11.77;76.88
61573;BME280;47465;43.094;12.434;2023-02-04T10:47:54;99152.00;;;11.78;77.66
61573;BME280;47465;43.094;12.434;2023-02-04T10:50:23;99152.88;;;11.78;77.19
61573;BME280;47465;43.094;12.434;2023-02-04T10:52:52;99152.94;;;11.75;76.61
61573;BME280;47465;43.094;12.434;2023-02-04T10:55:21;99169.53;;;11.88;77.16
61573;BME280;47465;43.094;12.434;2023-02-04T10:57:53;99131.06;;;11.62;77.37
61573;BME280;47465;43.094;12.434;2023-02-04T11:00:24;99130.03;;;11.68;77.30
61573;BME280;47465;43.094;12.434;2023-02-04T11:02:56;99128.31;;;11.67;78.07
61573;BME280;47465;43.094;12.434;2023-02-04T11:05:29;99139.22;;;11.92;75.70
61573;BME280;47465;43.094;12.434;2023-02-04T11:07:55;99110.97;;;11.49;76.56
61573;BME280;47465;43.094;12.434;2023-02-04T11:10:31;99111.88;;;11.49;76.07
61573;BME280;47465;43.094;12.434;2023-02-04T11:13:04;99102.06;;;11.51;75.90
61573;BME280;47465;43.094;12.434;2023-02-04T11:16:06;99106.31;;;11.59;75.98
61573;BME280;47465;43.094;12.434;2023-02-04T11:18:49;99114.09;;;11.66;75.64
61573;BME280;47465;43.094;12.434;2023-02-04T11:21:40;99094.16;;;11.47;76.54
61573;BME280;47465;43.094;12.434;2023-02-04T11:24:22;99086.31;;;11.42;78.24
61573;BME280;47465;43.094;12.434;2023-02-04T11:26:50;99100.97;;;11.60;76.20
61573;BME280;47465;43.094;12.434;2023-02-04T11:29:27;99076.38;;;11.49;77.82
61573;BME280;47465;43.094;12.434;2023-02-04T11:32:02;99085.13;;;11.54;76.94
61573;BME280;47465;43.094;12.434;2023-02-04T11:34:42;99077.31;;;11.46;76.81
61573;BME280;47465;43.094;12.434;2023-02-04T11:37:32;99080.63;;;11.56;77.26
61573;BME280;47465;43.094;12.434;2023-02-04T11:39:59;99060.34;;;11.50;78.19
61573;BME280;47465;43.094;12.434;2023-02-04T11:42:30;99044.28;;;11.54;77.92
61573;BME280;47465;43.094;12.434;2023-02-04T11:45:00;99038.09;;;11.53;78.49
61573;BME280;47465;43.094;12.434;2023-02-04T11:47:27;99069.50;;;11.73;77.15
61573;BME280;47465;43.094;12.434;2023-02-04T11:50:04;99060.78;;;11.68;77.54
61573;BME280;47465;43.094;12.434;2023-02-04T11:52:35;99052.78;;;11.68;75.92
61573;BME280;47465;43.094;12.434;2023-02-04T11:55:01;99050.94;;;11.71;76.98
61573;BME280;47465;43.094;12.434;2023-02-04T11:57:27;99049.09;;;11.74;76.40
61573;BME280;47465;43.094;12.434;2023-02-04T11:59:53;99045.59;;;11.71;76.65
61573;BME280;47465;43.094;12.434;2023-02-04T12:02:23;99041.16;;;11.70;76.17
61573;BME280;47465;43.094;12.434;2023-02-04T12:04:52;99025.25;;;11.69;76.31
61573;BME280;47465;43.094;12.434;2023-02-04T12:07:27;99045.34;;;11.81;75.32
61573;BME280;47465;43.094;12.434;2023-02-04T12:10:11;99024.19;;;11.75;74.84
61573;BME280;47465;43.094;12.434;2023-02-04T12:12:47;99025.06;;;11.75;74.62
61573;BME280;47465;43.094;12.434;2023-02-04T12:15:15;99049.53;;;11.91;74.07
61573;BME280;47465;43.094;12.434;2023-02-04T12:17:45;99022.19;;;11.83;75.21
61573;BME280;47465;43.094;12.434;2023-02-04T12:20:11;99023.22;;;12.10;72.68
61573;BME280;47465;43.094;12.434;2023-02-04T12:22:41;99001.00;;;12.09;72.69
61573;BME280;47465;43.094;12.434;2023-02-04T12:25:12;99014.13;;;12.17;71.84
61573;BME280;47465;43.094;12.434;2023-02-04T12:27:41;99003.59;;;12.12;72.60
61573;BME280;47465;43.094;12.434;2023-02-04T12:30:11;99007.28;;;12.08;72.83
61573;BME280;47465;43.094;12.434;2023-02-04T12:32:37;99002.03;;;12.05;71.87
61573;BME280;47465;43.094;12.434;2023-02-04T12:35:05;99012.53;;;12.10;71.71
61573;BME280;47465;43.094;12.434;2023-02-04T12:37:32;99005.38;;;12.12;72.60
61573;BME280;47465;43.094;12.434;2023-02-04T12:39:57;99011.19;;;12.26;72.97
61573;BME280;47465;43.094;12.434;2023-02-04T12:42:23;99028.59;;;12.38;72.76
61573;BME280;47465;43.094;12.434;2023-02-04T12:44:50;98998.03;;;12.20;72.51
61573;BME280;47465;43.094;12.434;2023-02-04T12:47:16;98995.22;;;12.25;73.23
61573;BME280;47465;43.094;12.434;2023-02-04T12:49:41;98998.78;;;12.25;73.07
61573;BME280;47465;43.094;12.434;2023-02-04T12:52:09;98978.47;;;12.21;72.98